createdAt,value
2022-10-24T00:00:18.804Z,93.00
2022-10-24T00:04:01.018Z,92.90
2022-10-24T00:07:43.154Z,92.90
2022-10-24T00:11:28.097Z,93.00
2022-10-24T00:15:10.387Z,93.10
2022-10-24T00:18:52.717Z,93.20
2022-10-24T00:22:34.568Z,93.20
2022-10-24T00:26:17.304Z,93.20
2022-10-24T00:29:59.330Z,93.30
2022-10-24T00:33:42.822Z,93.30
2022-10-24T00:37:24.770Z,93.30
2022-10-24T00:41:07.182Z,93.20
2022-10-24T00:44:52.181Z,93.10
2022-10-24T00:48:55.339Z,93.00
2022-10-24T00:52:42.986Z,91.60
2022-10-24T00:56:29.291Z,92.70
2022-10-24T01:00:21.794Z,92.80
2022-10-24T01:04:04.529Z,92.50
2022-10-24T01:08:09.276Z,92.80
2022-10-24T01:12:09.670Z,92.30
2022-10-24T01:15:56.146Z,92.80
2022-10-24T01:20:06.246Z,93.00
2022-10-24T01:23:57.881Z,92.60
2022-10-24T01:27:57.928Z,93.30
2022-10-24T01:31:47.964Z,92.30
2022-10-24T01:35:44.875Z,93.20
2022-10-24T01:39:36.288Z,92.90
2022-10-24T01:43:23.808Z,93.60
2022-10-24T01:47:11.965Z,93.50
2022-10-24T01:50:56.135Z,93.50
2022-10-24T01:54:39.404Z,93.60
2022-10-24T01:58:21.471Z,93.50
2022-10-24T02:02:19.291Z,93.40
2022-10-24T02:06:19.538Z,92.60
2022-10-24T02:10:07.682Z,92.90
2022-10-24T02:14:05.846Z,93.40
2022-10-24T02:17:47.948Z,92.00
2022-10-24T02:21:40.238Z,93.20
2022-10-24T02:25:26.767Z,93.00
2022-10-24T02:29:14.471Z,93.10
2022-10-24T02:32:59.285Z,92.90
2022-10-24T02:36:43.099Z,93.00
2022-10-24T02:40:25.367Z,92.90
2022-10-24T02:44:08.946Z,92.90
2022-10-24T02:48:02.613Z,92.90
2022-10-24T02:51:46.675Z,93.00
2022-10-24T02:55:28.669Z,93.00
2022-10-24T02:59:10.686Z,93.00
2022-10-24T03:02:52.693Z,93.00
2022-10-24T03:06:34.570Z,93.10
2022-10-24T03:10:16.554Z,93.10
2022-10-24T03:13:58.454Z,93.20
2022-10-24T03:17:40.403Z,93.10
2022-10-24T03:21:22.871Z,93.20
2022-10-24T03:25:06.337Z,93.20
2022-10-24T03:28:48.545Z,93.20
2022-10-24T03:32:30.550Z,93.20
2022-10-24T03:36:12.509Z,93.30
2022-10-24T03:39:54.467Z,93.30
2022-10-24T03:43:36.705Z,93.40
2022-10-24T03:47:19.680Z,93.30
2022-10-24T03:51:01.689Z,93.40
2022-10-24T03:54:43.722Z,93.30
2022-10-24T03:58:25.916Z,93.20
2022-10-24T04:02:08.205Z,93.20
2022-10-24T04:05:50.152Z,93.30
2022-10-24T04:09:32.211Z,93.30
2022-10-24T04:13:14.185Z,93.30
2022-10-24T04:16:56.080Z,93.40
2022-10-24T04:20:38.045Z,93.20
2022-10-24T04:24:20.215Z,93.20
2022-10-24T04:28:02.695Z,93.20
2022-10-24T04:31:44.725Z,93.40
2022-10-24T04:35:27.118Z,93.30
2022-10-24T04:39:09.048Z,93.40
2022-10-24T04:42:50.970Z,93.30
2022-10-24T04:46:32.965Z,93.30
2022-10-24T04:50:15.150Z,93.20
2022-10-24T04:53:57.040Z,93.30
2022-10-24T04:57:39.246Z,93.20
2022-10-24T05:01:21.411Z,93.30
2022-10-24T05:05:03.680Z,93.30
2022-10-24T05:08:45.574Z,93.30
2022-10-24T05:12:27.464Z,93.30
2022-10-24T05:16:09.479Z,93.40
2022-10-24T05:19:51.382Z,93.30
2022-10-24T05:23:33.516Z,93.30
2022-10-24T05:27:15.618Z,93.30
2022-10-24T05:30:57.677Z,93.30
2022-10-24T05:34:39.780Z,93.30
2022-10-24T05:38:21.768Z,93.30
2022-10-24T05:42:04.134Z,93.20
2022-10-24T05:45:48.416Z,93.00
2022-10-24T05:49:30.389Z,92.90
2022-10-24T05:53:13.166Z,92.80
2022-10-24T05:56:55.059Z,92.90
2022-10-24T06:00:37.006Z,93.00
2022-10-24T06:04:19.098Z,93.10
2022-10-24T06:08:01.039Z,93.30
2022-10-24T06:11:43.395Z,93.40
2022-10-24T06:15:25.324Z,93.30
2022-10-24T06:19:07.430Z,93.30
2022-10-24T06:22:49.941Z,93.40
2022-10-24T06:26:31.978Z,93.30
2022-10-24T06:30:14.167Z,93.20
2022-10-24T06:33:56.106Z,93.20
2022-10-24T06:37:38.118Z,93.20
2022-10-24T06:41:20.066Z,93.00
2022-10-24T06:45:02.031Z,93.00
2022-10-24T06:48:44.743Z,93.00
2022-10-24T06:52:26.844Z,93.00
2022-10-24T06:56:08.964Z,93.10
2022-10-24T06:59:50.890Z,93.10
2022-10-24T07:03:33.092Z,93.10
2022-10-24T07:07:17.131Z,93.10
2022-10-24T07:10:59.415Z,93.10
2022-10-24T07:14:41.406Z,93.10
2022-10-24T07:18:25.676Z,93.20
2022-10-24T07:22:08.153Z,93.20
2022-10-24T07:25:50.135Z,93.30
2022-10-24T07:29:34.207Z,93.30
2022-10-24T07:33:16.969Z,93.40
2022-10-24T07:36:58.870Z,93.40
2022-10-24T07:40:40.984Z,93.40
2022-10-24T07:44:22.871Z,93.50
2022-10-24T07:48:06.885Z,93.40
2022-10-24T07:51:48.903Z,93.40
2022-10-24T07:55:30.876Z,93.40
2022-10-24T07:59:29.988Z,93.40
2022-10-24T08:03:14.839Z,93.50
2022-10-24T08:06:58.187Z,93.60
2022-10-24T08:10:40.326Z,93.70
2022-10-24T08:14:22.374Z,93.70
2022-10-24T08:18:04.614Z,93.70
2022-10-24T08:21:46.681Z,93.80
2022-10-24T08:25:28.621Z,94.10
2022-10-24T08:29:14.918Z,94.10
2022-10-24T08:32:57.101Z,94.40
2022-10-24T08:36:39.099Z,92.50
2022-10-24T08:40:21.407Z,94.40
2022-10-24T08:44:38.083Z,94.40
2022-10-24T08:49:22.066Z,92.50
2022-10-24T08:53:43.075Z,92.10
2022-10-24T08:57:29.167Z,93.10
2022-10-24T09:01:29.775Z,94.50
2022-10-24T09:05:23.982Z,93.80
2022-10-24T09:09:36.441Z,94.30
2022-10-24T09:13:18.760Z,92.80
2022-10-24T09:17:16.949Z,95.40
2022-10-24T09:20:59.820Z,93.40
2022-10-24T09:25:02.648Z,95.20
2022-10-24T09:28:45.654Z,92.50
2022-10-24T09:32:33.141Z,94.90
2022-10-24T09:36:18.501Z,93.40
2022-10-24T09:40:22.278Z,93.90
2022-10-24T09:44:05.644Z,87.00
2022-10-24T09:48:24.577Z,89.90
2022-10-24T09:52:27.349Z,84.60
2022-10-24T09:56:15.443Z,82.80
2022-10-24T10:00:01.027Z,86.20
2022-10-24T10:03:44.422Z,87.40
2022-10-24T10:07:28.826Z,89.10
2022-10-24T10:11:13.349Z,89.50
2022-10-24T10:14:55.481Z,89.50
2022-10-24T10:18:44.880Z,89.60
2022-10-24T10:22:33.101Z,88.70
2022-10-24T10:26:29.413Z,90.10
2022-10-24T10:30:17.145Z,89.50
2022-10-24T10:34:30.765Z,88.80
2022-10-24T10:38:45.062Z,85.60
2022-10-24T10:43:06.899Z,83.70
2022-10-24T10:46:48.736Z,86.50
2022-10-24T10:50:52.230Z,89.30
2022-10-24T10:54:46.278Z,86.10
2022-10-24T11:02:52.214Z,88.10
2022-10-24T11:06:50.909Z,79.90
2022-10-24T11:10:41.130Z,82.60
2022-10-24T11:14:38.181Z,79.50
2022-10-24T11:18:35.323Z,79.40
2022-10-24T11:22:24.484Z,73.30
2022-10-24T11:26:10.899Z,76.20
2022-10-24T11:30:00.747Z,78.40
2022-10-24T11:33:46.994Z,77.20
2022-10-24T11:37:36.271Z,74.80
2022-10-24T11:41:30.231Z,71.40
2022-10-24T11:45:19.640Z,67.60
2022-10-24T11:49:29.778Z,72.60
2022-10-24T11:53:45.966Z,71.50
2022-10-24T11:57:30.207Z,65.60
2022-10-24T12:01:49.695Z,75.20
2022-10-24T12:06:00.352Z,69.00
2022-10-24T12:10:09.661Z,69.90
2022-10-24T12:14:13.425Z,73.10
2022-10-24T12:18:29.785Z,72.20
2022-10-24T12:22:40.527Z,71.60
2022-10-24T12:26:33.346Z,72.60
2022-10-24T12:30:19.446Z,77.80
2022-10-24T12:34:18.913Z,82.40
2022-10-24T12:38:03.501Z,78.80
2022-10-24T12:41:45.519Z,83.90
2022-10-24T12:45:32.434Z,87.20
2022-10-24T12:49:28.377Z,89.00
2022-10-24T12:53:20.380Z,87.20
2022-10-24T12:57:03.227Z,82.90
2022-10-24T13:01:01.114Z,85.30
2022-10-24T13:08:52.213Z,84.60
2022-10-24T13:12:59.157Z,80.10
2022-10-24T13:16:59.115Z,80.40
2022-10-24T13:20:44.708Z,83.30
2022-10-24T13:24:36.379Z,84.70
2022-10-24T13:28:22.601Z,78.90
2022-10-24T13:32:04.468Z,79.60
2022-10-24T13:35:47.935Z,78.60
2022-10-24T13:39:37.441Z,78.60
2022-10-24T13:43:21.926Z,77.90
2022-10-24T13:47:13.770Z,76.10
2022-10-24T13:51:36.245Z,72.30
2022-10-24T13:55:27.561Z,67.30
2022-10-24T13:59:38.259Z,65.00
2022-10-24T14:03:24.052Z,62.80
2022-10-24T14:07:08.603Z,69.80
2022-10-24T14:10:52.453Z,70.90
2022-10-24T14:14:40.153Z,74.80
2022-10-24T14:18:23.154Z,76.60
2022-10-24T14:22:21.664Z,79.90
2022-10-24T14:26:09.774Z,79.50
2022-10-24T14:30:19.041Z,85.90
2022-10-24T14:34:06.094Z,81.90
2022-10-24T14:37:48.941Z,86.90
2022-10-24T14:41:39.558Z,87.30
2022-10-24T14:45:28.179Z,86.50
2022-10-24T14:49:28.455Z,87.60
2022-10-24T14:53:38.496Z,84.70
2022-10-24T14:57:25.964Z,83.80
2022-10-24T15:01:17.922Z,88.00
2022-10-24T15:05:22.466Z,85.80
2022-10-24T15:09:17.434Z,85.00
2022-10-24T15:13:21.659Z,85.30
2022-10-24T15:17:28.312Z,85.00
2022-10-24T15:21:17.046Z,84.90
2022-10-24T15:25:01.905Z,89.00
2022-10-24T15:28:49.281Z,89.00
2022-10-24T15:32:31.379Z,89.00
2022-10-24T15:36:20.077Z,89.20
2022-10-24T15:40:18.767Z,87.80
2022-10-24T15:44:01.452Z,88.90
2022-10-24T15:47:44.903Z,89.80
2022-10-24T15:51:26.884Z,89.70
2022-10-24T15:55:16.189Z,89.70
2022-10-24T15:58:58.077Z,89.60
2022-10-24T16:02:42.123Z,89.80
2022-10-24T16:06:24.127Z,89.80
2022-10-24T16:10:06.488Z,89.80
2022-10-24T16:13:48.577Z,90.00
2022-10-24T16:17:30.527Z,90.10
2022-10-24T16:21:20.927Z,90.00
2022-10-24T16:25:02.843Z,89.50
2022-10-24T16:28:44.732Z,90.20
2022-10-24T16:32:26.705Z,90.20
2022-10-24T16:36:08.678Z,90.30
2022-10-24T16:39:50.549Z,90.40
2022-10-24T16:43:33.308Z,90.40
2022-10-24T16:47:17.543Z,90.50
2022-10-24T16:50:59.424Z,90.50
2022-10-24T16:54:41.332Z,90.60
2022-10-24T16:58:23.350Z,90.50
2022-10-24T17:02:05.540Z,90.60
2022-10-24T17:05:49.922Z,90.60
2022-10-24T17:09:32.320Z,90.70
2022-10-24T17:13:14.224Z,90.70
2022-10-24T17:16:56.675Z,90.80
2022-10-24T17:20:45.025Z,90.80
2022-10-24T17:24:27.407Z,90.80
2022-10-24T17:28:11.741Z,91.00
2022-10-24T17:31:53.999Z,91.00
2022-10-24T17:35:40.425Z,91.00
2022-10-24T17:39:27.287Z,91.10
2022-10-24T17:43:21.882Z,91.00
2022-10-24T17:47:05.198Z,90.40
2022-10-24T17:50:47.569Z,91.20
2022-10-24T17:54:29.408Z,91.20
2022-10-24T17:58:11.649Z,91.20
2022-10-24T18:01:53.674Z,91.20
2022-10-24T18:05:38.313Z,91.10
2022-10-24T18:09:20.841Z,91.00
2022-10-24T18:13:02.792Z,91.10
2022-10-24T18:16:44.693Z,91.10
2022-10-24T18:20:26.998Z,91.10
2022-10-24T18:24:08.994Z,91.20
2022-10-24T18:27:51.688Z,91.30
2022-10-24T18:31:34.588Z,91.30
2022-10-24T18:35:16.904Z,91.40
2022-10-24T18:38:59.555Z,91.30
2022-10-24T18:42:49.493Z,91.30
2022-10-24T18:46:31.961Z,91.20
2022-10-24T18:50:24.063Z,91.40
2022-10-24T18:54:10.347Z,90.80
2022-10-24T18:57:52.905Z,91.50
2022-10-24T19:01:43.053Z,91.50
2022-10-24T19:05:44.792Z,91.10
2022-10-24T19:09:27.454Z,89.90
2022-10-24T19:13:09.984Z,91.60
2022-10-24T19:16:52.921Z,91.60
2022-10-24T19:20:35.985Z,91.50
2022-10-24T19:24:17.888Z,91.40
2022-10-24T19:28:00.077Z,91.40
2022-10-24T19:31:42.111Z,91.30
2022-10-24T19:35:24.384Z,91.20
2022-10-24T19:39:07.008Z,91.20
2022-10-24T19:42:49.178Z,91.10
2022-10-24T19:46:31.114Z,91.10
2022-10-24T19:50:13.298Z,91.10
2022-10-24T19:53:57.125Z,91.10
2022-10-24T19:57:39.067Z,91.10
2022-10-24T20:01:23.726Z,91.10
2022-10-24T20:05:06.267Z,91.00
2022-10-24T20:08:49.497Z,91.00
2022-10-24T20:12:31.404Z,91.00
2022-10-24T20:16:13.604Z,91.00
2022-10-24T20:19:55.408Z,91.00
2022-10-24T20:23:37.998Z,91.10
2022-10-24T20:27:23.689Z,91.20
2022-10-24T20:31:07.428Z,91.30
2022-10-24T20:34:49.395Z,91.20
2022-10-24T20:38:33.215Z,91.20
2022-10-24T20:42:16.312Z,91.30
2022-10-24T20:45:59.063Z,91.30
2022-10-24T20:49:40.908Z,91.40
2022-10-24T20:53:22.855Z,91.40
2022-10-24T20:57:05.013Z,91.50
2022-10-24T21:00:46.921Z,91.60
2022-10-24T21:04:28.780Z,91.70
2022-10-24T21:08:10.658Z,91.80
2022-10-24T21:11:52.747Z,91.90
2022-10-24T21:15:34.612Z,92.10
2022-10-24T21:19:16.621Z,92.10
2022-10-24T21:22:58.597Z,92.20
2022-10-24T21:26:40.524Z,92.20
2022-10-24T21:30:22.611Z,92.10
2022-10-24T21:37:48.173Z,92.10
2022-10-24T21:41:30.354Z,92.10
2022-10-24T21:45:12.602Z,92.10
2022-10-24T21:48:55.306Z,92.00
2022-10-24T21:52:37.254Z,92.10
2022-10-24T21:56:21.968Z,92.20
2022-10-24T22:00:05.826Z,92.30
2022-10-24T22:03:47.859Z,92.30
2022-10-24T22:07:29.899Z,92.10
2022-10-24T22:11:15.187Z,92.40
2022-10-24T22:14:57.293Z,92.50
2022-10-24T22:18:40.099Z,92.30
2022-10-24T22:22:22.026Z,92.50
2022-10-24T22:26:04.738Z,92.50
2022-10-24T22:29:46.813Z,92.50
2022-10-24T22:33:35.108Z,92.60
2022-10-24T22:37:31.714Z,92.40
2022-10-24T22:41:13.650Z,91.70
2022-10-24T22:44:56.496Z,90.90
2022-10-24T22:48:44.371Z,92.50
2022-10-24T22:52:28.281Z,92.60
2022-10-24T22:56:15.945Z,92.60
2022-10-24T22:59:58.218Z,92.60
2022-10-24T23:03:57.181Z,92.60
2022-10-24T23:07:50.519Z,92.10
2022-10-24T23:11:32.710Z,91.90
2022-10-24T23:15:17.092Z,92.70
2022-10-24T23:18:59.295Z,92.70
2022-10-24T23:22:43.423Z,92.60
2022-10-24T23:26:31.033Z,92.50
2022-10-24T23:30:19.174Z,92.40
2022-10-24T23:34:01.402Z,92.40
2022-10-24T23:37:49.131Z,92.50
2022-10-24T23:41:31.255Z,92.60
2022-10-24T23:45:25.602Z,92.60
2022-10-24T23:49:36.123Z,91.90
2022-10-24T23:53:33.231Z,92.20
2022-10-24T23:57:18.059Z,91.50
